Time;durP1;ratioP1;P1;durP2;ratioP2;P2;SDS_P1;SDS_P2;PMS_P1;PMS_P2;Temp;Humidity;BMP_temperature;BMP_pressure;BME280_temperature;BME280_humidity;BME280_pressure;Samples;Min_cycle;Max_cycle;Signal;HPM_P1;HPM_P2
2023/02/22 00:01:46;;;;;;;5.22;2.88;;;;;;;5.45;100.00;99768.34;6374005;27;20039;-69
2023/02/22 00:04:47;;;;;;;4.35;3.15;;;;;;;5.25;100.00;99774.44;6372621;27;20035;-70
2023/02/22 00:07:50;;;;;;;7.28;3.72;;;;;;;5.22;100.00;99779.72;6372628;27;20407;-70
2023/02/22 00:10:52;;;;;;;3.90;2.90;;;;;;;5.21;100.00;99767.69;6373618;27;20062;-70
2023/02/22 00:13:56;;;;;;;5.80;3.25;;;;;;;5.18;100.00;99773.00;6373689;27;20486;-69
2023/02/22 00:16:58;;;;;;;7.65;4.20;;;;;;;5.11;100.00;99775.94;6374020;27;20043;-70
2023/02/22 00:19:59;;;;;;;10.00;4.72;;;;;;;5.16;100.00;99790.31;6373557;27;20043;-70
2023/02/22 00:23:00;;;;;;;6.32;3.47;;;;;;;5.19;100.00;99787.63;6372294;27;20543;-70
2023/02/22 00:26:01;;;;;;;6.13;3.50;;;;;;;5.14;100.00;99797.31;6373078;27;20047;-70
2023/02/22 00:29:01;;;;;;;5.47;3.97;;;;;;;5.18;100.00;99798.84;6373512;27;20088;-70
2023/02/22 00:32:03;;;;;;;6.00;4.07;;;;;;;5.16;100.00;99805.00;6373295;27;20119;-70
2023/02/22 00:35:07;;;;;;;5.43;3.45;;;;;;;5.09;100.00;99801.03;6373065;27;20039;-70
2023/02/22 00:38:08;;;;;;;10.43;4.22;;;;;;;4.91;100.00;99806.03;6371716;27;20047;-70
2023/02/22 00:41:11;;;;;;;4.55;2.97;;;;;;;4.91;100.00;99813.78;6371775;27;20050;-69
2023/02/22 00:44:12;;;;;;;6.25;3.85;;;;;;;4.94;100.00;99808.50;6371798;27;20042;-70
2023/02/22 00:47:12;;;;;;;5.65;3.47;;;;;;;4.93;100.00;99819.75;6372689;27;20058;-70
2023/02/22 00:50:15;;;;;;;7.50;3.00;;;;;;;4.87;100.00;99816.59;6371557;27;20487;-70
2023/02/22 00:53:18;;;;;;;5.30;2.63;;;;;;;4.88;100.00;99826.88;6372730;27;20039;-70
2023/02/22 00:56:19;;;;;;;4.03;2.45;;;;;;;4.99;100.00;99827.25;6371372;27;20043;-71
2023/02/22 00:59:22;;;;;;;3.13;2.28;;;;;;;5.10;100.00;99831.97;6372217;27;20043;-71
2023/02/22 01:02:25;;;;;;;2.13;1.90;;;;;;;5.14;100.00;99838.69;6371354;27;20302;-70
2023/02/22 01:05:28;;;;;;;3.45;2.58;;;;;;;5.18;100.00;99842.84;6371146;27;20063;-70
2023/02/22 01:08:30;;;;;;;3.20;2.30;;;;;;;5.21;100.00;99832.38;6372364;27;20050;-70
2023/02/22 01:11:30;;;;;;;3.67;2.33;;;;;;;5.27;100.00;99839.00;6371199;27;20050;-70
2023/02/22 01:14:31;;;;;;;5.55;2.80;;;;;;;5.32;100.00;99842.25;6370992;27;20039;-70
2023/02/22 01:17:35;;;;;;;3.92;2.33;;;;;;;5.44;100.00;99838.31;6371028;27;20035;-70
2023/02/22 01:20:40;;;;;;;2.65;1.88;;;;;;;5.52;100.00;99844.00;6372072;27;20100;-70
2023/02/22 01:23:44;;;;;;;4.68;1.77;;;;;;;5.64;100.00;99834.84;6372046;27;20164;-69
2023/02/22 01:26:50;;;;;;;3.40;2.47;;;;;;;5.72;100.00;99837.91;6370627;27;20035;-70
2023/02/22 01:29:51;;;;;;;3.22;1.83;;;;;;;5.81;100.00;99847.88;6370696;27;20035;-70
2023/02/22 01:32:54;;;;;;;6.25;2.95;;;;;;;5.87;100.00;99849.38;6371823;27;20465;-70
2023/02/22 01:35:55;;;;;;;8.82;2.20;;;;;;;5.88;100.00;99850.19;6371622;27;20051;-70
2023/02/22 01:38:56;;;;;;;3.38;2.28;;;;;;;5.90;100.00;99853.56;6371611;27;20095;-70
2023/02/22 01:42:00;;;;;;;3.67;2.13;;;;;;;5.86;100.00;99853.69;6371680;27;20066;-70
2023/02/22 01:45:29;;;;;;;3.47;2.00;;;;;;;5.89;100.00;99854.44;6370363;27;20039;-70
2023/02/22 01:48:35;;;;;;;4.43;2.70;;;;;;;5.90;100.00;99856.16;6370373;27;20115;-70
2023/02/22 01:51:43;;;;;;;4.40;2.13;;;;;;;5.98;100.00;99859.28;6371857;27;20050;-70
2023/02/22 01:54:48;;;;;;;4.32;2.90;;;;;;;6.09;100.00;99862.19;6370370;27;20043;-70
2023/02/22 01:57:50;;;;;;;14.77;3.10;;;;;;;6.18;100.00;99855.78;6370235;27;20110;-70
2023/02/22 02:00:54;;;;;;;6.77;3.40;;;;;;;6.20;99.66;99861.72;6371487;27;20043;-70
2023/02/22 02:03:58;;;;;;;4.88;1.92;;;;;;;6.26;96.92;99864.03;6370135;27;20559;-70
2023/02/22 02:07:04;;;;;;;3.70;2.05;;;;;;;6.41;96.62;99867.66;6371253;27;20126;-70
2023/02/22 02:10:14;;;;;;;3.28;2.17;;;;;;;6.42;97.16;99864.16;6369988;27;20036;-70
2023/02/22 02:13:15;;;;;;;1.77;1.52;;;;;;;6.45;96.52;99864.84;6376335;27;20117;-70
2023/02/22 02:16:17;;;;;;;4.65;2.28;;;;;;;6.51;95.59;99871.50;6409885;27;20038;-70
2023/02/22 02:19:32;;;;;;;2.15;1.70;;;;;;;6.45;96.20;99864.84;6409878;27;20486;-70
2023/02/22 02:23:00;;;;;;;4.45;1.80;;;;;;;6.53;94.24;99876.63;6375219;27;20406;-70
2023/02/22 02:26:26;;;;;;;3.40;1.90;;;;;;;6.62;93.52;99871.00;6376160;27;20475;-70
2023/02/22 02:29:48;;;;;;;4.07;2.17;;;;;;;6.64;92.98;99876.94;6374959;27;20051;-70
2023/02/22 02:32:58;;;;;;;3.13;1.80;;;;;;;6.57;92.37;99880.72;6374974;27;20070;-69
2023/02/22 02:36:21;;;;;;;2.60;2.00;;;;;;;6.59;92.73;99873.72;6375880;27;20052;-70
2023/02/22 02:39:32;;;;;;;3.28;1.80;;;;;;;6.64;92.31;99876.94;6374699;27;20062;-70
2023/02/22 02:42:40;;;;;;;5.57;1.92;;;;;;;6.62;91.95;99887.38;6374679;27;20043;-70
2023/02/22 02:46:01;;;;;;;7.05;2.80;;;;;;;6.67;91.80;99879.38;6374532;27;20058;-70
2023/02/22 02:49:11;;;;;;;3.10;2.25;;;;;;;6.62;91.93;99887.38;6374406;27;20088;-71
2023/02/22 02:52:13;;;;;;;8.02;3.13;;;;;;;6.61;91.56;99888.31;6374490;27;20043;-71
2023/02/22 02:55:17;;;;;;;;;;;;;;;6.61;91.76;99888.31;6374781;27;20088;-71
2023/02/22 02:58:21;;;;;;;3.28;1.48;;;;;;;6.44;92.75;99890.84;6375501;27;19919;-71
2023/02/22 03:01:56;;;;;;;4.88;2.42;;;;;;;6.41;92.29;99899.59;6375431;27;20043;-70
2023/02/22 03:05:26;;;;;;;5.28;2.40;;;;;;;6.34;91.64;99902.53;6374162;27;20043;-71
2023/02/22 03:08:33;;;;;;;3.38;1.83;;;;;;;6.29;91.44;99909.69;6375189;27;20069;-70
2023/02/22 03:11:50;;;;;;;4.65;2.45;;;;;;;6.16;92.37;99899.88;6373927;27;20070;-70
2023/02/22 03:15:32;;;;;;;4.88;2.28;;;;;;;6.00;92.68;99904.91;6374314;27;20043;-70
2023/02/22 03:18:53;;;;;;;4.90;1.90;;;;;;;5.95;93.31;99901.69;6375133;27;20043;-70
2023/02/22 03:22:24;;;;;;;6.97;2.05;;;;;;;5.91;92.96;99902.69;6373572;27;20043;-70
2023/02/22 03:25:42;;;;;;;3.92;1.55;;;;;;;5.83;92.60;99904.78;6374796;27;20035;-70
2023/02/22 03:28:47;;;;;;;6.80;2.13;;;;;;;5.81;92.71;99906.59;6374819;27;20043;-70
2023/02/22 03:31:54;;;;;;;5.75;1.88;;;;;;;5.79;92.58;99906.66;6373684;27;20051;-70
2023/02/22 03:35:20;;;;;;;4.07;1.95;;;;;;;5.72;92.56;99915.59;6373441;27;20419;-70
2023/02/22 03:38:25;;;;;;;3.10;1.75;;;;;;;5.65;92.32;99919.34;6374472;27;20550;-70
2023/02/22 03:41:28;;;;;;;2.58;1.30;;;;;;;5.61;92.24;99916.06;6373390;27;20043;-70
2023/02/22 03:44:34;;;;;;;2.50;1.75;;;;;;;5.56;92.16;99915.44;6374461;27;20078;-70
2023/02/22 03:47:40;;;;;;;3.47;2.05;;;;;;;5.51;92.59;99914.75;6374348;27;20070;-70
2023/02/22 03:50:43;;;;;;;4.25;1.75;;;;;;;5.42;92.70;99925.50;6374384;27;20106;-70
2023/02/22 03:53:44;;;;;;;6.03;1.50;;;;;;;5.23;94.21;99926.28;6373043;27;20043;-70
2023/02/22 03:56:59;;;;;;;3.90;1.88;;;;;;;5.18;95.00;99935.13;6372886;27;20542;-70
2023/02/22 04:00:06;;;;;;;3.28;1.50;;;;;;;5.02;95.24;99921.94;6372894;27;20400;-70
2023/02/22 04:03:09;;;;;;;3.92;2.00;;;;;;;4.94;95.48;99932.63;6374017;27;20091;-69
2023/02/22 04:06:12;;;;;;;4.90;1.83;;;;;;;4.87;95.52;99923.41;6373917;27;20035;-71
2023/02/22 04:09:14;;;;;;;3.08;1.40;;;;;;;4.78;95.32;99929.78;6372574;27;20047;-70
2023/02/22 04:12:15;;;;;;;3.28;1.38;;;;;;;4.71;95.48;99928.34;6372649;27;20035;-70
2023/02/22 04:15:22;;;;;;;3.72;1.98;;;;;;;4.66;95.73;99929.44;6372395;27;20043;-70
2023/02/22 04:18:23;;;;;;;8.05;2.78;;;;;;;4.60;96.06;99935.66;6372364;27;20087;-70
2023/02/22 04:21:24;;;;;;;5.07;3.13;;;;;;;4.52;95.33;99928.22;6373508;27;20051;-70
2023/02/22 04:24:25;;;;;;;2.95;2.05;;;;;;;4.50;96.09;99929.16;6372260;27;20043;-69
2023/02/22 04:27:28;;;;;;;2.53;1.90;;;;;;;4.47;95.46;99935.31;6373496;27;20046;-70
2023/02/22 04:30:30;;;;;;;2.40;1.88;;;;;;;4.49;95.33;99941.25;6371989;27;20049;-70
2023/02/22 04:33:31;;;;;;;1.80;1.55;;;;;;;4.49;94.58;99941.25;6372480;27;20047;-70
2023/02/22 04:36:31;;;;;;;3.35;2.00;;;;;;;4.48;94.87;99941.31;6372974;27;20047;-70
2023/02/22 04:39:33;;;;;;;1.95;1.48;;;;;;;4.44;94.77;99938.81;6371789;27;20054;-70
2023/02/22 04:42:35;;;;;;;7.03;1.63;;;;;;;4.41;94.99;99933.78;6371810;27;20088;-70
2023/02/22 04:45:36;;;;;;;1.88;1.30;;;;;;;4.41;95.25;99933.78;6373049;27;20041;-71
2023/02/22 04:48:36;;;;;;;7.05;2.45;;;;;;;4.40;94.92;99939.00;6371623;27;20043;-71
2023/02/22 04:51:40;;;;;;;3.10;1.67;;;;;;;4.37;94.80;99939.13;6372753;27;20510;-71
2023/02/22 04:54:41;;;;;;;6.45;2.17;;;;;;;4.27;94.82;99943.78;6371606;27;20064;-70
2023/02/22 04:57:41;;;;;;;4.57;1.98;;;;;;;4.22;94.74;99943.97;6371501;27;20639;-70
2023/02/22 05:00:43;;;;;;;3.72;1.92;;;;;;;4.17;95.26;99956.19;6371364;27;20529;-70
2023/02/22 05:03:44;;;;;;;10.52;2.42;;;;;;;4.15;94.94;99941.66;6371368;27;20035;-70
2023/02/22 05:06:45;;;;;;;3.63;1.63;;;;;;;4.12;95.06;99944.31;6372476;27;20039;-70
2023/02/22 05:09:46;;;;;;;2.47;1.75;;;;;;;4.09;94.92;99952.19;6372188;27;20487;-69
2023/02/22 05:12:50;;;;;;;2.47;1.65;;;;;;;4.01;95.49;99947.31;6372505;27;20038;-71
2023/02/22 05:15:53;;;;;;;1.75;1.55;;;;;;;3.98;95.28;99953.44;6373045;27;20072;-69
2023/02/22 05:18:56;;;;;;;7.80;2.10;;;;;;;4.04;95.52;99949.78;6371903;27;20046;-70
2023/02/22 05:22:02;;;;;;;2.72;1.70;;;;;;;4.04;94.96;99952.38;6371847;27;20043;-70
2023/02/22 05:25:03;;;;;;;6.70;1.83;;;;;;;3.99;95.61;99960.25;6372878;27;20039;-70
2023/02/22 05:28:12;;;;;;;8.95;1.65;;;;;;;3.99;96.60;99952.50;6372987;27;20079;-72
2023/02/22 05:31:13;;;;;;;3.80;1.60;;;;;;;4.02;96.35;99960.16;6371767;27;20110;-72
2023/02/22 05:34:15;;;;;;;6.85;2.10;;;;;;;3.98;95.46;99952.59;6372849;27;20035;-69
2023/02/22 05:37:18;;;;;;;2.92;1.45;;;;;;;3.94;95.20;99961.34;6372519;27;20055;-69
2023/02/22 05:40:23;;;;;;;2.08;1.52;;;;;;;3.89;95.80;99966.66;6372614;27;20039;-70
2023/02/22 05:43:25;;;;;;;7.78;2.05;;;;;;;3.97;95.46;99967.22;6372676;27;20039;-69
2023/02/22 05:46:26;;;;;;;3.17;1.85;;;;;;;3.96;94.60;99982.78;6371427;27;20061;-70
2023/02/22 05:49:29;;;;;;;1.95;1.35;;;;;;;3.92;94.02;99987.19;6371345;27;20062;-70
2023/02/22 05:52:32;;;;;;;7.40;2.38;;;;;;;3.99;93.26;99988.66;6370729;27;20436;-70
2023/02/22 05:55:33;;;;;;;5.68;1.80;;;;;;;4.09;92.04;99994.34;6370300;27;20046;-70
2023/02/22 05:58:35;;;;;;;3.85;2.30;;;;;;;4.02;91.88;99992.91;6370120;27;20040;-69
2023/02/22 06:01:37;;;;;;;2.97;1.73;;;;;;;4.06;91.73;99997.06;6371412;27;20177;-70
2023/02/22 06:04:42;;;;;;;3.17;2.00;;;;;;;4.16;91.15;100008.75;6370165;27;20441;-70
2023/02/22 06:07:45;;;;;;;4.07;1.65;;;;;;;4.27;92.00;100012.69;6370157;28;20495;-70
2023/02/22 06:10:47;;;;;;;10.43;2.15;;;;;;;4.37;91.15;100029.56;6371217;27;20210;-70
2023/02/22 06:13:52;;;;;;;4.55;2.53;;;;;;;4.38;89.26;100028.63;6370035;28;20035;-69
2023/02/22 06:16:56;;;;;;;8.32;3.38;;;;;;;4.57;89.52;100034.84;6370060;28;20422;-70
2023/02/22 06:19:57;;;;;;;19.20;2.42;;;;;;;4.67;91.38;100035.31;6371076;27;20126;-69
2023/02/22 06:22:58;;;;;;;3.40;2.13;;;;;;;4.75;90.48;100042.81;6371077;27;20053;-70
2023/02/22 06:25:58;;;;;;;4.40;2.20;;;;;;;4.81;89.92;100040.00;6370036;27;20066;-70
2023/02/22 06:28:59;;;;;;;3.70;1.52;;;;;;;4.90;88.14;100049.13;6369323;28;20045;-70
2023/02/22 06:32:00;;;;;;;2.40;1.50;;;;;;;4.95;88.92;100053.25;6371189;27;20452;-70
2023/02/22 06:35:01;;;;;;;5.00;1.98;;;;;;;5.01;88.08;100053.00;6370416;27;20122;-70
2023/02/22 06:38:02;;;;;;;1.83;1.20;;;;;;;5.13;84.51;100056.03;6369471;27;20628;-70
2023/02/22 06:41:05;;;;;;;3.70;1.55;;;;;;;5.22;84.73;100055.66;6370754;28;20039;-71
2023/02/22 06:44:06;;;;;;;1.52;1.05;;;;;;;5.26;84.11;100059.81;6369580;28;20479;-73
2023/02/22 06:47:07;;;;;;;2.97;1.25;;;;;;;5.37;83.87;100054.22;6370687;28;20059;-70
2023/02/22 06:50:22;;;;;;;10.27;2.13;;;;;;;5.49;80.00;100058.06;6370587;27;20044;-70
2023/02/22 06:53:25;;;;;;;5.35;0.95;;;;;;;5.59;79.44;100065.41;6370908;27;20372;-71
2023/02/22 06:56:26;;;;;;;1.75;1.20;;;;;;;5.70;80.14;100059.78;6370793;27;20460;-71
2023/02/22 06:59:27;;;;;;;8.40;2.20;;;;;;;5.81;80.41;100072.31;6375454;27;20043;-71
2023/02/22 07:02:28;;;;;;;3.70;2.17;;;;;;;5.92;79.50;100064.09;6375477;27;20039;-70
2023/02/22 07:05:28;;;;;;;14.00;2.13;;;;;;;5.98;78.76;100069.88;6375493;27;20039;-70
2023/02/22 07:08:29;;;;;;;3.58;2.05;;;;;;;6.08;78.46;100075.53;6374102;27;20039;-71
2023/02/22 07:11:31;;;;;;;8.57;2.95;;;;;;;6.23;77.29;100074.88;6375110;27;20044;-70
2023/02/22 07:14:31;;;;;;;3.40;1.25;;;;;;;6.35;75.92;100077.88;6373968;27;20768;-70
2023/02/22 07:17:32;;;;;;;7.07;1.73;;;;;;;6.51;74.61;100078.03;6373831;27;20092;-70
2023/02/22 07:20:33;;;;;;;4.57;1.63;;;;;;;6.70;73.61;100081.50;6373798;27;20130;-70
2023/02/22 07:23:34;;;;;;;2.85;1.45;;;;;;;6.86;74.40;100086.84;6374960;27;20039;-70
2023/02/22 07:26:43;;;;;;;3.80;1.60;;;;;;;6.96;72.12;100075.16;6373756;27;20479;-70
2023/02/22 07:29:45;;;;;;;5.63;1.70;;;;;;;7.22;71.58;100083.47;6373477;27;20043;-70
2023/02/22 07:32:48;;;;;;;7.20;1.83;;;;;;;7.13;72.39;100076.97;6374830;27;20479;-70
2023/02/22 07:35:50;;;;;;;3.10;1.40;;;;;;;7.25;71.09;100078.97;6374354;27;20451;-70
2023/02/22 07:38:51;;;;;;;3.92;1.65;;;;;;;7.26;71.72;100082.41;6373464;27;20050;-70
2023/02/22 07:41:52;;;;;;;1.40;0.77;;;;;;;7.32;68.71;100086.47;6374488;27;20043;-70
2023/02/22 07:44:53;;;;;;;4.25;1.38;;;;;;;7.35;68.99;100092.38;6374609;27;20043;-71
2023/02/22 07:47:54;;;;;;;4.75;1.50;;;;;;;7.46;68.76;100092.69;6374278;27;20498;-70
2023/02/22 07:50:55;;;;;;;4.05;1.80;;;;;;;7.39;67.07;100093.06;6372981;27;20447;-71
2023/02/22 07:53:56;;;;;;;5.53;1.63;;;;;;;7.60;66.57;100094.66;6374349;27;20497;-71
2023/02/22 07:56:57;;;;;;;2.42;1.20;;;;;;;7.70;66.91;100097.66;6374125;27;20114;-70
2023/02/22 08:00:00;;;;;;;12.13;1.33;;;;;;;7.69;64.01;100095.94;6374057;27;20067;-71
2023/02/22 08:03:07;;;;;;;2.92;1.60;;;;;;;7.65;63.56;100108.22;6373879;27;20389;-71
2023/02/22 08:06:08;;;;;;;4.00;1.02;;;;;;;7.59;60.82;100105.94;6372751;27;20050;-70
2023/02/22 08:09:08;;;;;;;4.65;1.52;;;;;;;7.65;61.72;100099.59;6371386;27;20063;-70
2023/02/22 08:12:10;;;;;;;2.97;0.90;;;;;;;7.50;61.42;100100.34;6373722;27;20047;-70
2023/02/22 08:15:33;;;;;;;6.40;1.33;;;;;;;7.56;60.97;100097.47;6373690;27;20076;-70
2023/02/22 08:18:36;;;;;;;2.88;1.55;;;;;;;7.53;60.03;100097.59;6373600;27;20050;-71
2023/02/22 08:21:37;;;;;;;16.65;3.92;;;;;;;7.58;59.93;100096.47;6373465;27;20039;-70
2023/02/22 08:24:40;;;;;;;5.78;1.48;;;;;;;7.59;60.50;100100.72;6373562;27;20077;-70
2023/02/22 08:27:42;;;;;;;1.38;0.75;;;;;;;7.70;60.32;100091.59;6372131;27;20120;-70
2023/02/22 08:30:43;;;;;;;3.15;2.10;;;;;;;7.53;58.99;100095.84;6373112;27;20492;-70
2023/02/22 08:33:47;;;;;;;6.00;2.42;;;;;;;7.74;59.87;100099.19;6371975;27;20048;-71
2023/02/22 08:36:48;;;;;;;6.95;1.25;;;;;;;7.65;58.44;100094.41;6371938;27;20055;-71
2023/02/22 08:39:51;;;;;;;11.27;1.65;;;;;;;7.71;58.51;100094.13;6373025;27;20043;-71
2023/02/22 08:42:55;;;;;;;0.77;0.45;;;;;;;7.70;57.79;100095.06;6373015;27;20080;-72
2023/02/22 08:45:56;;;;;;;2.47;1.63;;;;;;;7.87;57.82;100097.66;6371756;27;20039;-71
2023/02/22 08:48:57;;;;;;;1.08;0.73;;;;;;;8.13;57.12;100084.28;6372725;27;20035;-72
2023/02/22 08:51:59;;;;;;;2.05;1.20;;;;;;;8.23;58.39;100101.09;6371665;27;20050;-70
2023/02/22 08:55:01;;;;;;;2.70;1.02;;;;;;;8.28;56.37;100101.72;6371524;27;20047;-71
2023/02/22 08:58:03;;;;;;;3.28;1.20;;;;;;;8.41;55.94;100101.94;6371521;27;20043;-71
2023/02/22 09:01:06;;;;;;;;;;;;;;;8.24;54.96;100108.81;6372551;27;20482;-75
2023/02/22 09:04:09;;;;;;;;;;;;;;;8.28;57.04;100115.53;6373458;27;19980;-75
2023/02/22 09:07:10;;;;;;;1.98;1.50;;;;;;;8.44;55.37;100106.97;6371731;27;19923;-75
2023/02/22 09:10:23;;;;;;;2.45;1.00;;;;;;;8.28;53.69;100112.09;6372816;27;20043;-75
2023/02/22 09:13:24;;;;;;;6.90;1.15;;;;;;;8.45;53.89;100106.91;6372805;27;20039;-75
2023/02/22 09:16:25;;;;;;;3.63;1.25;;;;;;;8.58;53.98;100116.69;6373064;27;20124;-75
2023/02/22 09:19:25;;;;;;;4.75;1.50;;;;;;;8.75;53.96;100113.19;6371230;27;20051;-75
2023/02/22 09:22:27;;;;;;;5.60;2.35;;;;;;;8.66;53.57;100111.91;6372665;27;20123;-75
2023/02/22 09:25:30;;;;;;;15.52;2.08;;;;;;;8.61;52.51;100114.78;6371465;27;20039;-75
2023/02/22 09:28:31;;;;;;;2.65;1.95;;;;;;;8.47;53.03;100110.28;6372491;27;20195;-75
2023/02/22 09:31:37;;;;;;;9.77;2.22;;;;;;;8.71;53.26;100111.66;6370872;27;20461;-75
2023/02/22 09:34:44;;;;;;;2.22;1.20;;;;;;;8.95;53.19;100115.59;6372021;27;20041;-75
2023/02/22 09:37:45;;;;;;;8.32;1.35;;;;;;;8.75;50.72;100108.84;6372143;27;20047;-75
2023/02/22 09:41:19;;;;;;;3.72;1.50;;;;;;;9.07;52.95;100119.31;6405400;27;20047;-75
2023/02/22 09:44:44;;;;;;;3.03;1.30;;;;;;;9.12;53.03;100121.66;6370672;27;20146;-75
2023/02/22 09:47:55;;;;;;;1.85;1.00;;;;;;;9.14;52.13;100117.19;6370867;27;20441;-75
2023/02/22 09:50:59;;;;;;;1.80;1.10;;;;;;;9.16;51.87;100115.34;6370593;27;20046;-75
2023/02/22 09:54:05;;;;;;;2.28;1.23;;;;;;;9.31;52.24;100111.94;6371814;27;20066;-75
2023/02/22 09:57:10;;;;;;;5.53;1.30;;;;;;;9.26;51.28;100119.16;6371924;27;20502;-75
2023/02/22 10:00:31;;;;;;;2.80;1.40;;;;;;;9.23;50.27;100120.16;6371811;27;20065;-75
2023/02/22 10:03:46;;;;;;;6.13;1.30;;;;;;;9.31;51.80;100124.09;6370469;27;20107;-75
2023/02/22 10:07:13;;;;;;;2.55;1.15;;;;;;;8.97;51.65;100120.72;6371763;27;20483;-75
2023/02/22 10:10:17;;;;;;;11.30;3.08;;;;;;;9.16;52.33;100116.22;6371745;27;20046;-75
2023/02/22 10:13:31;;;;;;;6.10;1.67;;;;;;;9.27;51.04;100119.06;6371357;27;20035;-70
2023/02/22 10:16:56;;;;;;;4.57;1.60;;;;;;;9.53;50.59;100111.56;6371350;27;20571;-70
2023/02/22 10:20:19;;;;;;;4.63;1.63;;;;;;;9.71;50.78;100114.09;6371121;27;20445;-71
2023/02/22 10:23:46;;;;;;;4.45;1.60;;;;;;;9.73;51.57;100114.84;6371124;27;20291;-72
2023/02/22 10:26:48;;;;;;;7.70;2.15;;;;;;;9.56;50.80;100107.97;6371179;27;20036;-71
2023/02/22 10:29:53;;;;;;;3.33;1.23;;;;;;;9.70;51.85;100105.44;6371045;27;20376;-72
2023/02/22 10:33:13;;;;;;;5.63;1.52;;;;;;;9.66;51.75;100106.53;6372490;27;20049;-71
2023/02/22 10:36:21;;;;;;;4.43;1.40;;;;;;;9.55;50.18;100104.50;6375987;27;20043;-72
2023/02/22 10:39:29;;;;;;;2.33;1.35;;;;;;;9.41;49.93;100104.44;6376574;27;20043;-71
2023/02/22 10:42:30;;;;;;;5.72;1.77;;;;;;;9.73;50.12;100089.63;6376136;27;20047;-71
2023/02/22 10:45:33;;;;;;;8.65;1.58;;;;;;;9.93;49.99;100085.88;6375996;27;20050;-71
2023/02/22 10:48:37;;;;;;;8.27;2.88;;;;;;;9.82;48.63;100086.50;6374852;27;20437;-71
2023/02/22 10:51:38;;;;;;;5.65;2.22;;;;;;;9.82;50.18;100080.44;6374486;27;20114;-72
2023/02/22 10:54:44;;;;;;;8.05;1.92;;;;;;;10.17;49.25;100080.16;6374589;27;20039;-71
2023/02/22 10:57:48;;;;;;;3.10;1.20;;;;;;;10.25;47.84;100080.53;6375158;27;20065;-75
2023/02/22 11:00:50;;;;;;;2.00;0.95;;;;;;;10.25;49.58;100089.22;6376203;27;20039;-75
2023/02/22 11:04:13;;;;;;;5.20;2.03;;;;;;;10.42;48.04;100075.19;6375834;27;20074;-75
2023/02/22 11:07:19;;;;;;;3.78;1.00;;;;;;;10.42;47.24;100064.75;6365424;27;20436;-75
2023/02/22 11:10:30;;;;;;;6.35;1.75;;;;;;;10.62;47.72;100065.31;6373119;27;20043;-75
2023/02/22 11:13:38;;;;;;;2.17;1.67;;;;;;;11.11;47.65;100064.06;6375247;27;20042;-76
2023/02/22 11:16:50;;;;;;;2.28;1.42;;;;;;;11.82;47.11;100065.56;6375722;27;20084;-75
2023/02/22 11:19:52;;;;;;;3.27;1.10;;;;;;;11.50;46.35;100066.72;6374655;27;20050;-75
2023/02/22 11:22:56;;;;;;;5.60;1.80;;;;;;;11.84;46.21;100055.84;6373753;27;20039;-75
2023/02/22 11:26:10;;;;;;;2.83;1.58;;;;;;;12.33;46.49;100059.59;6375548;27;20399;-76
2023/02/22 11:29:24;;;;;;;5.22;1.70;;;;;;;12.79;45.32;100054.63;6373976;27;20505;-75
2023/02/22 11:32:25;;;;;;;3.05;1.40;;;;;;;13.25;45.41;100055.75;6375185;27;20399;-76
2023/02/22 11:35:58;;;;;;;1.63;1.10;;;;;;;12.98;45.55;100050.72;6373749;27;20042;-76
2023/02/22 11:38:59;;;;;;;4.72;1.63;;;;;;;13.45;44.67;100056.97;6373752;27;20483;-76
2023/02/22 11:42:22;;;;;;;3.25;1.50;;;;;;;12.84;41.68;100051.69;6374956;27;20043;-76
2023/02/22 11:45:23;;;;;;;3.55;1.30;;;;;;;12.48;46.00;100053.31;6373792;27;20035;-76
2023/02/22 11:48:24;;;;;;;8.37;2.97;;;;;;;12.35;45.90;100040.22;6373783;27;20083;-76
2023/02/22 11:51:33;;;;;;;5.70;1.50;;;;;;;12.98;45.58;100053.34;6373536;27;20046;-76
2023/02/22 11:55:20;;;;;;;6.35;1.80;;;;;;;13.65;43.10;100051.09;6373593;27;20043;-76
2023/02/22 11:58:53;;;;;;;11.73;5.05;;;;;;;13.41;43.98;100051.13;6368464;27;20063;-76
2023/02/22 12:02:21;;;;;;;12.00;3.60;;;;;;;12.53;44.00;100042.53;6370176;27;20461;-76
2023/02/22 12:05:25;;;;;;;5.75;1.80;;;;;;;12.68;43.38;100041.44;6372941;27;20054;-76
2023/02/22 12:08:39;;;;;;;3.85;1.40;;;;;;;12.66;44.81;100038.09;6374641;27;20043;-76
2023/02/22 12:12:17;;;;;;;5.55;1.95;;;;;;;13.21;43.63;100036.78;6374392;27;20122;-76
2023/02/22 12:15:33;;;;;;;2.83;1.73;;;;;;;13.22;44.83;100027.16;6372987;27;20039;-76
2023/02/22 12:18:46;;;;;;;7.32;1.70;;;;;;;13.04;44.30;100032.78;6372906;27;20506;-76
2023/02/22 12:21:57;;;;;;;5.35;1.40;;;;;;;12.60;44.34;100018.44;6374132;27;20523;-76
2023/02/22 12:25:25;;;;;;;3.57;2.13;;;;;;;12.70;44.39;100027.31;6374126;27;20122;-76
2023/02/22 12:28:34;;;;;;;4.40;1.85;;;;;;;12.77;44.90;100029.50;6373280;27;20039;-76
2023/02/22 12:31:53;;;;;;;3.83;1.40;;;;;;;12.77;43.62;100021.66;6372773;27;20479;-76
2023/02/22 12:34:58;;;;;;;7.57;1.75;;;;;;;13.05;44.18;100024.00;6372478;27;20045;-76
2023/02/22 12:38:21;;;;;;;4.95;1.63;;;;;;;13.00;44.13;100012.16;6373906;27;20047;-76
2023/02/22 12:41:55;;;;;;;12.10;4.57;;;;;;;13.05;44.64;100016.13;6372928;27;20099;-76
2023/02/22 12:45:05;;;;;;;5.43;2.47;;;;;;;13.00;43.96;100012.16;6355180;27;20047;-72
2023/02/22 12:48:26;;;;;;;5.32;2.15;;;;;;;12.33;44.17;100013.31;6373427;27;20046;-72
2023/02/22 12:51:40;;;;;;;3.85;1.55;;;;;;;12.01;44.73;100008.53;6371970;27;20084;-76
2023/02/22 12:54:49;;;;;;;9.93;2.03;;;;;;;12.12;46.10;100002.56;6372626;27;20043;-76
2023/02/22 12:57:58;;;;;;;6.63;2.53;;;;;;;12.12;45.82;100005.16;6372355;27;20051;-72
2023/02/22 13:01:20;;;;;;;6.03;1.88;;;;;;;12.05;45.35;100007.38;6371824;27;20070;-76
2023/02/22 13:04:22;;;;;;;3.70;1.65;;;;;;;12.10;47.25;100007.06;6371317;27;20410;-76
2023/02/22 13:07:41;;;;;;;4.10;1.50;;;;;;;12.39;46.06;100005.03;6371680;27;20039;-76
2023/02/22 13:10:51;;;;;;;6.30;1.85;;;;;;;12.36;45.54;100005.28;6372709;27;20047;-76
2023/02/22 13:13:52;;;;;;;3.35;1.75;;;;;;;12.34;45.75;100007.16;6371355;27;20043;-76
2023/02/22 13:17:02;;;;;;;7.47;2.22;;;;;;;12.42;46.27;100010.09;6372334;27;20046;-76
2023/02/22 13:20:09;;;;;;;2.63;1.95;;;;;;;12.45;47.04;99994.16;6372676;27;20065;-76
2023/02/22 13:23:47;;;;;;;7.43;1.92;;;;;;;12.24;46.97;99998.28;6372134;27;20047;-71
2023/02/22 13:27:07;;;;;;;4.32;1.48;;;;;;;12.42;45.04;99999.63;6371325;27;20039;-76
2023/02/22 13:30:17;;;;;;;5.00;1.67;;;;;;;12.58;44.19;100002.00;6372309;27;20475;-76
2023/02/22 13:34:00;;;;;;;8.38;2.15;;;;;;;12.41;46.69;99997.94;6372525;27;20043;-76
2023/02/22 13:37:07;;;;;;;3.33;1.75;;;;;;;11.95;46.21;99997.66;6371834;27;20483;-71
2023/02/22 13:40:32;;;;;;;7.75;1.80;;;;;;;12.08;46.38;100008.94;6371734;27;20142;-71
2023/02/22 13:43:59;;;;;;;4.50;1.95;;;;;;;12.10;47.12;100007.88;6371597;27;20046;-71
2023/02/22 13:47:15;;;;;;;5.97;3.35;;;;;;;11.89;46.87;100002.34;6370534;27;20065;-71
2023/02/22 13:50:25;;;;;;;5.43;2.33;;;;;;;11.92;47.02;100001.28;6370278;27;20059;-71
2023/02/22 13:53:31;;;;;;;1.85;1.40;;;;;;;11.72;48.91;99997.38;6370449;27;20042;-71
2023/02/22 13:56:32;;;;;;;4.88;1.80;;;;;;;11.55;48.41;99998.50;6371433;27;20091;-71
2023/02/22 13:59:35;;;;;;;2.80;1.90;;;;;;;11.79;49.26;100001.25;6370268;27;20032;-71
2023/02/22 14:03:07;;;;;;;8.73;1.73;;;;;;;11.78;48.48;99999.59;6371398;27;20071;-72
2023/02/22 14:06:35;;;;;;;3.97;1.33;;;;;;;11.73;50.07;99996.44;6370667;27;20039;-71
2023/02/22 14:09:44;;;;;;;7.60;2.50;;;;;;;11.61;49.21;99997.25;6366211;27;20059;-72
2023/02/22 14:12:49;;;;;;;8.10;1.75;;;;;;;11.54;49.94;99991.59;6370212;28;20047;-71
2023/02/22 14:15:59;;;;;;;6.40;2.22;;;;;;;11.42;49.94;99995.00;6370063;28;20497;-71
2023/02/22 14:19:13;;;;;;;5.30;2.47;;;;;;;11.59;50.03;99994.75;6371261;27;20045;-73
2023/02/22 14:22:26;;;;;;;7.28;2.97;;;;;;;11.70;49.98;99986.19;6371221;27;20066;-72
2023/02/22 14:25:45;;;;;;;3.83;1.92;;;;;;;11.57;48.91;99986.19;6371509;28;20402;-76
2023/02/22 14:28:56;;;;;;;9.90;2.30;;;;;;;11.43;51.07;99999.31;6371355;27;20091;-76
2023/02/22 14:32:01;;;;;;;5.07;1.85;;;;;;;11.18;49.85;99997.44;6371272;27;20064;-76
2023/02/22 14:35:14;;;;;;;3.03;1.58;;;;;;;11.27;50.22;99997.69;6370134;28;20047;-76
2023/02/22 14:38:18;;;;;;;14.27;2.03;;;;;;;11.64;49.16;99999.66;6371086;27;20064;-75
2023/02/22 14:41:28;;;;;;;7.07;2.13;;;;;;;11.91;49.21;99996.19;6371149;27;20046;-76
2023/02/22 14:44:39;;;;;;;5.03;1.70;;;;;;;11.92;49.65;99993.44;6370987;27;20039;-76